Time;durP1;ratioP1;P1;durP2;ratioP2;P2;SDS_P1;SDS_P2;PMS_P1;PMS_P2;Temp;Humidity;BMP_temperature;BMP_pressure;BME280_temperature;BME280_humidity;BME280_pressure;Samples;Min_cycle;Max_cycle;Signal;HPM_P1;HPM_P2
2022/07/23 00:01:02;;;;;;;12.90;7.80;;;16.30;99.90;;;;;;5034414;28;20217;-83
2022/07/23 00:03:27;;;;;;;12.67;7.27;;;16.30;99.90;;;;;;5034602;28;20175;-82
2022/07/23 00:05:53;;;;;;;15.03;8.27;;;16.20;99.90;;;;;;5034779;28;20184;-82
2022/07/23 00:08:19;;;;;;;13.33;7.37;;;16.10;99.90;;;;;;5035187;28;20180;-82
2022/07/23 00:10:44;;;;;;;13.63;7.50;;;16.00;99.90;;;;;;5033278;28;20173;-82
2022/07/23 00:13:10;;;;;;;13.40;7.27;;;15.80;99.90;;;;;;5034836;28;20194;-81
2022/07/23 00:15:36;;;;;;;14.17;8.13;;;15.80;99.90;;;;;;5034733;28;20176;-80
2022/07/23 00:18:01;;;;;;;14.37;7.93;;;15.90;99.90;;;;;;5033525;28;20203;-80
2022/07/23 00:20:27;;;;;;;12.70;8.57;;;15.90;99.90;;;;;;5033406;28;20629;-80
2022/07/23 00:22:55;;;;;;;13.30;9.10;;;15.80;99.90;;;;;;5034713;28;20186;-81
2022/07/23 00:25:22;;;;;;;18.07;8.67;;;16.00;99.90;;;;;;5033617;28;20284;-80
2022/07/23 00:27:48;;;;;;;14.03;8.70;;;16.00;99.90;;;;;;5034134;28;20650;-80
2022/07/23 00:30:14;;;;;;;16.40;9.23;;;15.70;99.90;;;;;;5033588;28;20665;-80
2022/07/23 00:32:51;;;;;;;20.60;9.00;;;15.70;99.90;;;;;;5033267;28;20174;-81
2022/07/23 00:35:19;;;;;;;19.50;9.60;;;15.70;99.90;;;;;;5033278;28;20194;-80
2022/07/23 00:37:45;;;;;;;14.50;9.87;;;15.60;99.90;;;;;;5033387;28;20650;-81
2022/07/23 00:40:11;;;;;;;19.43;9.83;;;15.50;99.90;;;;;;5033760;28;20231;-81
2022/07/23 00:42:38;;;;;;;20.40;10.60;;;15.60;99.90;;;;;;5037318;28;20166;-79
2022/07/23 00:45:04;;;;;;;14.27;10.50;;;15.40;99.90;;;;;;5040268;28;20194;-79
2022/07/23 00:47:30;;;;;;;20.17;11.17;;;15.60;99.90;;;;;;5038986;28;20595;-80
2022/07/23 00:49:55;;;;;;;22.50;11.80;;;15.60;99.90;;;;;;5039274;28;20169;-81
2022/07/23 00:52:21;;;;;;;24.97;12.53;;;15.60;99.90;;;;;;5037121;28;20170;-79
2022/07/23 00:54:48;;;;;;;18.00;11.03;;;15.60;99.90;;;;;;5034882;28;20202;-81
2022/07/23 00:57:14;;;;;;;21.53;11.57;;;15.50;99.90;;;;;;5037476;28;20178;-83
2022/07/23 00:59:40;;;;;;;22.37;11.53;;;15.60;99.90;;;;;;5032999;28;20181;-81
2022/07/23 01:02:06;;;;;;;24.23;12.90;;;15.60;99.90;;;;;;5037633;28;20173;-79
2022/07/23 01:04:31;;;;;;;22.30;12.50;;;15.60;99.90;;;;;;5037907;28;20562;-81
2022/07/23 01:06:57;;;;;;;23.13;12.37;;;15.50;99.90;;;;;;5034550;28;20778;-80
2022/07/23 01:09:23;;;;;;;20.47;12.20;;;15.60;99.90;;;;;;5034917;28;20515;-79
2022/07/23 01:11:51;;;;;;;17.43;11.83;;;15.60;99.90;;;;;;5033062;28;20193;-81
2022/07/23 01:14:18;;;;;;;23.27;11.60;;;15.70;99.90;;;;;;5033591;28;20735;-79
2022/07/23 01:16:46;;;;;;;22.67;13.07;;;15.60;99.90;;;;;;5033610;28;20186;-79
2022/07/23 01:19:13;;;;;;;22.07;12.17;;;15.50;99.90;;;;;;5032849;28;20547;-79
2022/07/23 01:21:41;;;;;;;19.03;11.57;;;15.50;99.90;;;;;;5046587;23;20218;-78
2022/07/23 01:24:08;;;;;;;19.43;11.33;;;15.50;99.90;;;;;;5012863;28;20170;-78
2022/07/23 01:26:34;;;;;;;21.40;11.67;;;15.50;99.90;;;;;;5012863;28;20662;-79
2022/07/23 01:29:00;;;;;;;17.87;12.03;;;15.50;99.90;;;;;;5013266;28;20231;-80
2022/07/23 01:31:26;;;;;;;20.00;11.73;;;15.40;99.90;;;;;;5013416;28;20171;-80
2022/07/23 01:33:51;;;;;;;23.57;12.13;;;15.40;99.90;;;;;;5013466;28;20209;-80
2022/07/23 01:36:17;;;;;;;22.07;12.43;;;15.40;99.90;;;;;;5044561;22;20315;-82
2022/07/23 01:38:43;;;;;;;17.73;12.27;;;15.30;99.90;;;;;;5018129;28;20173;-82
2022/07/23 01:41:08;;;;;;;21.07;12.53;;;15.30;99.90;;;;;;5018161;28;20197;-82
2022/07/23 01:43:34;;;;;;;27.13;12.57;;;15.40;99.90;;;;;;5016842;28;20201;-82
2022/07/23 01:45:59;;;;;;;19.20;11.60;;;15.40;99.90;;;;;;5016636;28;20240;-80
2022/07/23 01:48:25;;;;;;;23.43;11.07;;;15.40;99.90;;;;;;5015816;28;20173;-80
2022/07/23 01:50:51;;;;;;;23.13;12.07;;;15.30;99.90;;;;;;5016665;28;20665;-80
2022/07/23 01:53:17;;;;;;;15.90;11.50;;;15.40;99.90;;;;;;5016869;28;20189;-80
2022/07/23 01:55:42;;;;;;;21.63;12.30;;;15.40;99.90;;;;;;5017291;28;20817;-80
2022/07/23 01:58:08;;;;;;;18.50;12.23;;;15.40;99.90;;;;;;5017885;28;20185;-80
2022/07/23 02:00:34;;;;;;;19.17;11.80;;;15.40;99.90;;;;;;5017336;28;20201;-80
2022/07/23 02:03:00;;;;;;;24.37;12.10;;;15.50;99.90;;;;;;5016536;28;20570;-80
2022/07/23 02:05:28;;;;;;;17.60;11.90;;;15.50;99.90;;;;;;5015874;28;20193;-80
2022/07/23 02:07:54;;;;;;;24.80;12.67;;;15.40;99.90;;;;;;5016006;28;20173;-80
2022/07/23 02:10:20;;;;;;;21.03;11.63;;;15.40;99.90;;;;;;5015360;28;20166;-80
2022/07/23 02:12:46;;;;;;;27.33;12.73;;;15.30;99.90;;;;;;5014212;28;20185;-80
2022/07/23 02:15:11;;;;;;;26.60;12.17;;;15.40;99.90;;;;;;5016586;28;20555;-80
2022/07/23 02:17:37;;;;;;;22.63;12.40;;;15.50;99.90;;;;;;5016536;28;20181;-80
2022/07/23 02:20:04;;;;;;;18.70;12.70;;;15.30;99.90;;;;;;5016057;28;20210;-80
2022/07/23 02:22:30;;;;;;;18.37;11.57;;;15.40;99.90;;;;;;5016248;28;20270;-80
2022/07/23 02:24:56;;;;;;;22.50;12.67;;;15.40;99.90;;;;;;5016899;28;20221;-80
2022/07/23 02:27:22;;;;;;;20.60;12.30;;;15.20;99.90;;;;;;5017272;28;20170;-80
2022/07/23 02:29:48;;;;;;;21.23;12.23;;;15.30;99.90;;;;;;5017070;28;20271;-80
2022/07/23 02:32:14;;;;;;;19.77;12.63;;;15.20;99.90;;;;;;5017566;28;20170;-80
2022/07/23 02:34:40;;;;;;;21.53;11.77;;;15.20;99.90;;;;;;5022068;28;20251;-80
2022/07/23 02:37:05;;;;;;;19.67;12.23;;;15.00;99.90;;;;;;5021437;28;20189;-80
2022/07/23 02:39:31;;;;;;;19.80;11.40;;;15.00;99.90;;;;;;5021300;28;20536;-80
2022/07/23 02:41:57;;;;;;;19.93;11.77;;;14.90;99.90;;;;;;5021026;28;20538;-80
2022/07/23 02:44:23;;;;;;;21.13;12.00;;;14.90;99.90;;;;;;5021734;28;20737;-80
2022/07/23 02:46:48;;;;;;;18.60;11.73;;;15.00;99.90;;;;;;5021388;28;20716;-80
2022/07/23 02:49:14;;;;;;;20.97;11.93;;;14.80;99.90;;;;;;5021037;28;20178;-80
2022/07/23 02:51:40;;;;;;;19.73;13.10;;;14.90;99.90;;;;;;5021222;28;20166;-80
2022/07/23 02:54:05;;;;;;;26.37;13.33;;;14.80;99.90;;;;;;5020952;28;20194;-80
2022/07/23 02:56:31;;;;;;;24.10;11.90;;;14.80;99.90;;;;;;5020265;28;20181;-80
2022/07/23 02:58:56;;;;;;;17.10;11.53;;;14.80;99.90;;;;;;5020526;28;20643;-80
2022/07/23 03:01:22;;;;;;;19.77;11.77;;;14.80;99.90;;;;;;5020017;28;20693;-80
2022/07/23 03:03:48;;;;;;;20.03;12.37;;;15.10;99.90;;;;;;5020384;28;20590;-80
2022/07/23 03:06:13;;;;;;;27.10;12.97;;;14.90;99.90;;;;;;5020639;28;20193;-80
2022/07/23 03:08:39;;;;;;;21.57;11.93;;;15.00;99.90;;;;;;5021106;28;20180;-80
2022/07/23 03:11:10;;;;;;;18.07;11.50;;;15.00;99.90;;;;;;5019893;28;20205;-81
2022/07/23 03:13:37;;;;;;;19.50;11.83;;;14.90;99.90;;;;;;5019880;28;20627;-80
2022/07/23 03:16:03;;;;;;;22.50;12.63;;;15.00;99.90;;;;;;5019556;28;20213;-80
2022/07/23 03:18:29;;;;;;;18.73;12.43;;;14.80;99.90;;;;;;5019812;28;20178;-80
2022/07/23 03:20:54;;;;;;;21.10;11.60;;;14.70;99.90;;;;;;5019824;28;20271;-80
2022/07/23 03:23:20;;;;;;;21.33;12.80;;;14.70;99.90;;;;;;5019480;28;20184;-80
2022/07/23 03:25:49;;;;;;;20.47;12.33;;;14.80;99.90;;;;;;5019840;28;20174;-80
2022/07/23 03:28:15;;;;;;;18.30;12.00;;;14.90;99.90;;;;;;5019620;28;20206;-80
2022/07/23 03:30:42;;;;;;;26.70;13.00;;;14.80;99.90;;;;;;5019354;28;20181;-80
2022/07/23 03:33:08;;;;;;;21.90;12.67;;;14.70;99.90;;;;;;5018928;28;20182;-80
2022/07/23 03:35:34;;;;;;;25.20;13.57;;;14.60;99.90;;;;;;5019300;28;20182;-79
2022/07/23 03:38:00;;;;;;;22.13;12.23;;;14.60;99.90;;;;;;5019490;28;20170;-78
2022/07/23 03:40:26;;;;;;;24.33;13.20;;;14.60;99.90;;;;;;5020013;28;20201;-78
2022/07/23 03:42:51;;;;;;;23.60;12.93;;;14.60;99.90;;;;;;5019330;28;20178;-78
2022/07/23 03:45:17;;;;;;;21.50;12.67;;;14.70;99.90;;;;;;5019008;28;20233;-78
2022/07/23 03:47:44;;;;;;;20.33;12.43;;;14.80;99.90;;;;;;5018099;28;20182;-78
2022/07/23 03:50:10;;;;;;;26.30;13.10;;;14.80;99.90;;;;;;5018737;28;20706;-78
2022/07/23 03:52:36;;;;;;;18.73;12.13;;;14.60;99.90;;;;;;5017854;28;20188;-78
2022/07/23 03:55:03;;;;;;;19.60;11.97;;;14.50;99.90;;;;;;5019177;28;20654;-80
2022/07/23 03:57:29;;;;;;;20.10;12.00;;;14.50;99.90;;;;;;5019916;28;20184;-80
2022/07/23 03:59:54;;;;;;;21.30;11.30;;;14.50;99.90;;;;;;5019877;28;20237;-81
2022/07/23 04:02:20;;;;;;;19.40;11.43;;;14.60;99.90;;;;;;5020182;28;20170;-81
2022/07/23 04:04:46;;;;;;;19.60;11.90;;;14.60;99.90;;;;;;5019970;28;20655;-80
2022/07/23 04:07:12;;;;;;;19.93;12.83;;;14.40;99.90;;;;;;5019243;28;20178;-79
2022/07/23 04:09:40;;;;;;;22.07;13.37;;;14.50;99.90;;;;;;5017884;28;20185;-78
2022/07/23 04:12:06;;;;;;;20.97;12.87;;;14.50;99.90;;;;;;5018567;28;20174;-78
2022/07/23 04:14:33;;;;;;;19.03;12.53;;;14.50;99.90;;;;;;5017104;28;20228;-78
2022/07/23 04:16:59;;;;;;;22.50;13.73;;;14.60;99.90;;;;;;5016800;28;20173;-78
2022/07/23 04:19:25;;;;;;;19.23;13.57;;;14.70;99.90;;;;;;5017709;28;20210;-78
2022/07/23 04:21:51;;;;;;;22.43;13.70;;;14.50;99.90;;;;;;5018558;28;20255;-78
2022/07/23 04:24:17;;;;;;;24.93;14.10;;;14.60;99.90;;;;;;5017031;28;20658;-80
2022/07/23 04:26:43;;;;;;;24.60;13.87;;;14.70;99.90;;;;;;5018538;28;20732;-80
2022/07/23 04:29:09;;;;;;;22.10;13.93;;;14.70;99.90;;;;;;5018268;28;20627;-81
2022/07/23 04:31:35;;;;;;;21.77;13.10;;;14.70;99.90;;;;;;5018318;28;20228;-80
2022/07/23 04:34:00;;;;;;;22.17;13.57;;;14.70;99.90;;;;;;5018657;28;20202;-81
2022/07/23 04:36:26;;;;;;;19.77;13.67;;;14.70;99.90;;;;;;5018375;28;20338;-80
2022/07/23 04:38:52;;;;;;;20.50;12.63;;;14.60;99.90;;;;;;5018912;28;20542;-80
2022/07/23 04:41:17;;;;;;;22.90;13.17;;;14.70;99.90;;;;;;5018427;28;20273;-81
2022/07/23 04:43:43;;;;;;;19.43;12.50;;;14.70;99.90;;;;;;5036249;28;20197;-81
2022/07/23 04:46:10;;;;;;;17.63;13.13;;;14.90;99.90;;;;;;5017656;28;20180;-80
2022/07/23 04:48:36;;;;;;;18.93;11.93;;;15.10;99.90;;;;;;5016902;28;20181;-80
2022/07/23 04:51:02;;;;;;;16.93;10.80;;;15.20;99.90;;;;;;5016770;28;20182;-81
2022/07/23 04:53:28;;;;;;;12.13;9.43;;;15.40;99.90;;;;;;5016628;28;20227;-80
2022/07/23 04:55:53;;;;;;;14.63;8.70;;;15.50;99.90;;;;;;5016409;28;20181;-80
2022/07/23 04:58:20;;;;;;;14.10;9.40;;;15.40;99.90;;;;;;5034698;28;20172;-80
2022/07/23 05:00:45;;;;;;;14.60;8.23;;;15.80;99.90;;;;;;5016908;28;20593;-81
2022/07/23 05:03:11;;;;;;;11.43;8.10;;;16.20;99.90;;;;;;5017086;28;20181;-80
2022/07/23 05:05:37;;;;;;;10.47;8.50;;;16.00;99.90;;;;;;5017541;28;20216;-79
2022/07/23 05:08:03;;;;;;;13.83;9.40;;;15.90;99.90;;;;;;5015964;28;20178;-78
2022/07/23 05:10:28;;;;;;;13.57;9.13;;;15.90;99.90;;;;;;5015759;28;20166;-79
2022/07/23 05:12:54;;;;;;;17.00;9.60;;;15.90;99.90;;;;;;5015242;28;20182;-78
2022/07/23 05:15:20;;;;;;;14.30;10.17;;;15.80;99.90;;;;;;5016598;28;20198;-78
2022/07/23 05:17:45;;;;;;;11.17;9.73;;;15.80;99.90;;;;;;5016700;28;20178;-79
2022/07/23 05:20:11;;;;;;;14.07;9.63;;;15.90;99.90;;;;;;5015789;28;20303;-79
2022/07/23 05:22:37;;;;;;;14.20;9.37;;;16.10;99.90;;;;;;5016008;28;20247;-78
2022/07/23 05:25:04;;;;;;;11.77;8.87;;;16.00;99.90;;;;;;5016667;28;20654;-78
2022/07/23 05:27:30;;;;;;;9.97;8.20;;;16.20;99.90;;;;;;5016677;28;20235;-78
2022/07/23 05:29:56;;;;;;;12.27;7.63;;;16.20;99.90;;;;;;5033841;28;20174;-78
2022/07/23 05:32:21;;;;;;;16.30;8.20;;;16.20;99.90;;;;;;5016638;28;20174;-78
2022/07/23 05:34:47;;;;;;;14.60;8.40;;;16.50;99.90;;;;;;5016243;28;20288;-78
2022/07/23 05:37:13;;;;;;;13.53;7.93;;;16.40;99.90;;;;;;5016545;28;20198;-78
2022/07/23 05:39:38;;;;;;;14.50;8.50;;;16.30;99.90;;;;;;5015988;28;20170;-78
2022/07/23 05:42:04;;;;;;;15.27;9.20;;;16.30;99.90;;;;;;5015849;28;20193;-78
2022/07/23 05:44:30;;;;;;;14.33;8.93;;;16.40;99.90;;;;;;5015524;28;20194;-78
2022/07/23 05:46:55;;;;;;;15.10;9.47;;;16.30;99.90;;;;;;5016607;28;20181;-78
2022/07/23 05:49:21;;;;;;;14.70;9.00;;;16.40;99.90;;;;;;5017237;28;20606;-79
2022/07/23 05:51:47;;;;;;;14.47;8.97;;;16.60;99.90;;;;;;5016723;28;20741;-78
2022/07/23 05:54:12;;;;;;;11.13;8.03;;;16.70;99.90;;;;;;5017217;28;20221;-79
2022/07/23 05:56:38;;;;;;;17.40;8.00;;;16.90;99.90;;;;;;5016745;28;20173;-79
2022/07/23 05:59:04;;;;;;;11.77;8.03;;;17.00;99.90;;;;;;5017402;28;20213;-78
2022/07/23 06:01:29;;;;;;;14.03;8.03;;;17.10;99.90;;;;;;5017386;28;20696;-80
2022/07/23 06:03:55;;;;;;;19.10;8.13;;;17.40;99.90;;;;;;5016887;28;20663;-81
2022/07/23 06:06:21;;;;;;;13.07;6.82;;;17.80;99.90;;;;;;5018380;28;20281;-79
2022/07/23 06:08:46;;;;;;;14.82;7.95;;;18.00;99.90;;;;;;5019632;28;20217;-79
2022/07/23 06:11:12;;;;;;;11.45;6.68;;;18.10;99.90;;;;;;5021192;28;20539;-79
2022/07/23 06:13:38;;;;;;;11.88;6.30;;;18.30;99.90;;;;;;5022987;28;20677;-79
2022/07/23 06:16:03;;;;;;;8.13;5.95;;;18.40;99.90;;;;;;5022115;28;20329;-79
2022/07/23 06:18:29;;;;;;;11.70;6.22;;;18.60;99.90;;;;;;5021103;28;20646;-81
2022/07/23 06:20:55;;;;;;;10.85;5.53;;;18.70;99.90;;;;;;5020104;28;20197;-79
2022/07/23 06:23:20;;;;;;;14.50;5.72;;;18.70;99.90;;;;;;5019940;28;20223;-78
2022/07/23 06:25:46;;;;;;;13.77;5.93;;;18.70;99.90;;;;;;5019915;28;20189;-78
2022/07/23 06:28:12;;;;;;;10.55;5.43;;;18.90;99.90;;;;;;5020608;28;20216;-79
2022/07/23 06:30:37;;;;;;;10.38;5.22;;;19.20;99.90;;;;;;5020248;28;20185;-78
2022/07/23 06:33:03;;;;;;;10.15;5.95;;;19.40;99.90;;;;;;5020131;28;20683;-79
2022/07/23 06:35:29;;;;;;;12.00;5.13;;;19.50;99.90;;;;;;5019443;28;20571;-79
2022/07/23 06:37:54;;;;;;;10.65;5.15;;;19.60;99.90;;;;;;5020458;28;20231;-79
2022/07/23 06:40:20;;;;;;;7.95;5.35;;;19.80;99.90;;;;;;5019511;28;20697;-79
2022/07/23 06:42:46;;;;;;;7.80;5.65;;;20.10;99.90;;;;;;5019532;28;20275;-79
2022/07/23 06:45:12;;;;;;;8.80;5.80;;;20.10;99.90;;;;;;5019504;28;20186;-79
2022/07/23 06:47:38;;;;;;;10.43;5.35;;;20.20;99.90;;;;;;5019719;28;20179;-79
2022/07/23 06:50:05;;;;;;;7.72;4.75;;;20.00;99.90;;;;;;5020182;28;20180;-79
2022/07/23 06:52:31;;;;;;;9.85;4.78;;;20.10;99.90;;;;;;5021732;28;20718;-79
2022/07/23 06:54:56;;;;;;;7.15;5.18;;;20.10;99.90;;;;;;5019811;28;20657;-79
2022/07/23 06:57:22;;;;;;;10.02;5.25;;;20.50;99.90;;;;;;5018856;28;20189;-77
2022/07/23 06:59:48;;;;;;;15.52;5.38;;;21.00;99.90;;;;;;5035965;28;20185;-76
2022/07/23 07:02:13;;;;;;;8.00;4.85;;;20.70;99.90;;;;;;5018689;28;20181;-77
2022/07/23 07:04:39;;;;;;;9.05;4.90;;;21.00;99.90;;;;;;5019027;28;20548;-78
2022/07/23 07:07:05;;;;;;;11.30;4.93;;;20.80;99.90;;;;;;5038621;28;20166;-77
2022/07/23 07:09:30;;;;;;;6.68;4.22;;;21.20;99.90;;;;;;5019772;28;20178;-77
2022/07/23 07:11:56;;;;;;;7.68;4.43;;;21.00;99.90;;;;;;5017693;28;20243;-77
2022/07/23 07:14:22;;;;;;;8.45;4.22;;;21.60;99.90;;;;;;5018901;28;20194;-78
2022/07/23 07:16:47;;;;;;;7.97;4.65;;;21.40;99.90;;;;;;5017602;28;20182;-77
2022/07/23 07:19:13;;;;;;;9.95;4.15;;;21.60;99.90;;;;;;5018288;28;20184;-78
2022/07/23 07:21:39;;;;;;;10.00;4.25;;;21.40;99.90;;;;;;5023292;23;20218;-84
2022/07/23 07:24:05;;;;;;;4.88;3.85;;;21.50;99.90;;;;;;5017910;28;20182;-83
2022/07/23 07:26:30;;;;;;;6.20;3.50;;;21.50;99.90;;;;;;5017356;28;20195;-83
2022/07/23 07:28:57;;;;;;;9.63;3.80;;;21.30;99.90;;;;;;5015987;28;20181;-83
2022/07/23 07:31:22;;;;;;;8.13;3.50;;;21.00;99.90;;;;;;5017775;28;20180;-84
2022/07/23 07:33:48;;;;;;;8.40;3.60;;;20.90;99.90;;;;;;5016386;28;20209;-83
2022/07/23 07:36:13;;;;;;;9.95;4.00;;;20.40;99.90;;;;;;5022443;23;20226;-77
2022/07/23 07:38:39;;;;;;;7.53;3.60;;;20.70;99.90;;;;;;4997329;28;20322;-77
2022/07/23 07:41:05;;;;;;;9.07;3.67;;;21.30;99.90;;;;;;4996754;28;20253;-77
2022/07/23 07:43:30;;;;;;;6.60;3.83;;;21.80;99.90;;;;;;4997038;28;20194;-76
2022/07/23 07:45:56;;;;;;;4.85;3.75;;;22.20;99.90;;;;;;4997137;28;20326;-76
2022/07/23 07:48:22;;;;;;;6.90;4.00;;;21.30;99.90;;;;;;4997081;28;20186;-76
2022/07/23 07:50:47;;;;;;;5.68;4.57;;;21.30;99.90;;;;;;4997290;28;20182;-77
2022/07/23 07:53:13;;;;;;;7.15;4.20;;;20.80;99.90;;;;;;5003271;28;20175;-77
2022/07/23 07:55:39;;;;;;;10.05;4.75;;;20.80;99.90;;;;;;5006118;28;20544;-78
2022/07/23 07:58:05;;;;;;;6.22;4.20;;;21.10;99.90;;;;;;5005085;28;20190;-77
2022/07/23 08:00:30;;;;;;;4.75;3.67;;;22.00;99.90;;;;;;5006762;28;20685;-77
2022/07/23 08:02:56;;;;;;;6.45;3.83;;;22.20;99.90;;;;;;5006280;28;20194;-78
2022/07/23 08:05:24;;;;;;;7.65;4.10;;;22.30;99.90;;;;;;5005149;28;20200;-77
2022/07/23 08:07:50;;;;;;;6.50;3.78;;;21.60;99.90;;;;;;5004343;28;20170;-77
2022/07/23 08:10:17;;;;;;;6.45;4.25;;;21.90;99.90;;;;;;5005984;28;20173;-76
2022/07/23 08:12:44;;;;;;;6.45;3.88;;;22.10;99.90;;;;;;5024685;28;20183;-75
2022/07/23 08:15:11;;;;;;;4.00;3.50;;;22.10;99.90;;;;;;5006424;28;20197;-76
2022/07/23 08:17:37;;;;;;;6.43;3.13;;;22.30;99.90;;;;;;5003909;28;20178;-75
2022/07/23 08:20:05;;;;;;;7.18;3.35;;;21.50;99.90;;;;;;5005129;28;20174;-75
2022/07/23 08:22:43;;;;;;;4.97;3.42;;;22.20;99.90;;;;;;5005324;28;20167;-75
2022/07/23 08:25:09;;;;;;;8.63;3.92;;;22.30;99.90;;;;;;5013761;28;20199;-75
2022/07/23 08:27:35;;;;;;;7.13;3.20;;;22.50;99.90;;;;;;5003259;28;20181;-75
2022/07/23 08:30:01;;;;;;;4.03;3.20;;;22.70;99.90;;;;;;5010534;28;20269;-75
2022/07/23 08:32:26;;;;;;;5.35;3.25;;;23.00;99.90;;;;;;5004235;28;20171;-75
2022/07/23 08:34:52;;;;;;;5.47;3.00;;;22.70;99.90;;;;;;5006609;28;20213;-75
2022/07/23 08:37:17;;;;;;;5.07;2.70;;;23.30;99.90;;;;;;5005776;28;20719;-75
2022/07/23 08:39:43;;;;;;;4.38;2.88;;;23.80;99.90;;;;;;5004337;28;20174;-76
2022/07/23 08:42:09;;;;;;;5.85;2.85;;;24.20;99.90;;;;;;5004371;28;20538;-76
2022/07/23 08:44:35;;;;;;;3.10;2.55;;;23.30;99.90;;;;;;5006280;28;20197;-76
2022/07/23 08:47:01;;;;;;;6.93;3.00;;;23.40;99.90;;;;;;5001636;28;20244;-76
2022/07/23 08:49:29;;;;;;;6.75;2.95;;;22.60;99.90;;;;;;5005149;28;20224;-75
2022/07/23 08:51:55;;;;;;;3.47;3.17;;;22.30;99.90;;;;;;5005617;28;20198;-75
2022/07/23 08:54:22;;;;;;;5.65;2.70;;;22.60;99.90;;;;;;5004099;28;20190;-76
2022/07/23 08:56:48;;;;;;;3.22;2.50;;;22.60;99.90;;;;;;5019949;28;20193;-75
2022/07/23 08:59:14;;;;;;;5.50;2.60;;;22.90;99.90;;;;;;4995750;28;20174;-75
2022/07/23 09:01:40;;;;;;;3.38;2.40;;;23.90;99.90;;;;;;5007436;28;20216;-76
2022/07/23 09:04:05;;;;;;;4.35;2.40;;;24.00;99.90;;;;;;5015215;28;20232;-76
2022/07/23 09:06:31;;;;;;;3.97;1.90;;;23.90;99.90;;;;;;5015149;28;20574;-76
2022/07/23 09:08:57;;;;;;;3.80;2.00;;;23.30;99.90;;;;;;5016021;28;20185;-77
2022/07/23 09:11:23;;;;;;;5.35;2.25;;;23.00;99.90;;;;;;5010202;28;20256;-77
2022/07/23 09:13:52;;;;;;;3.78;2.20;;;22.90;99.90;;;;;;4996430;28;20248;-77
2022/07/23 09:16:30;;;;;;;2.55;2.03;;;23.30;99.90;;;;;;4995087;28;20192;-77
2022/07/23 09:18:58;;;;;;;4.40;2.22;;;23.90;99.90;;;;;;4994158;28;20724;-77
2022/07/23 09:21:36;;;;;;;2.88;2.00;;;24.10;99.90;;;;;;4993820;28;20202;-77
2022/07/23 09:24:10;;;;;;;2.70;2.30;;;24.60;99.90;;;;;;4994389;28;20764;-77
2022/07/23 09:26:47;;;;;;;5.82;2.38;;;23.90;99.90;;;;;;4995044;28;20185;-77
2022/07/23 09:29:18;;;;;;;31.58;6.32;;;23.00;99.90;;;;;;4994279;28;20175;-77
2022/07/23 09:31:44;;;;;;;5.32;2.28;;;23.50;99.90;;;;;;4995193;28;20186;-77
2022/07/23 09:34:32;;;;;;;2.97;2.00;;;23.70;99.90;;;;;;4995169;28;20198;-77
2022/07/23 09:37:13;;;;;;;3.40;1.98;;;23.50;99.90;;;;;;4995854;28;20182;-77
2022/07/23 09:39:39;;;;;;;2.75;1.80;;;24.10;99.90;;;;;;4995624;28;20181;-77
2022/07/23 09:42:20;;;;;;;2.72;1.90;;;24.50;99.50;;;;;;4995933;28;20302;-77
2022/07/23 09:44:51;;;;;;;2.92;1.77;;;24.40;99.40;;;;;;4996166;28;20225;-77
2022/07/23 09:47:17;;;;;;;2.88;1.80;;;23.90;99.90;;;;;;4994632;28;20179;-77
2022/07/23 09:50:06;;;;;;;2.28;1.95;;;24.50;99.60;;;;;;4993993;28;20178;-77
2022/07/23 09:52:35;;;;;;;5.80;2.13;;;24.20;98.70;;;;;;4994698;28;20178;-78
2022/07/23 09:55:03;;;;;;;2.97;1.77;;;24.80;98.90;;;;;;4996484;28;20198;-77
2022/07/23 09:57:31;;;;;;;3.15;2.08;;;25.10;98.20;;;;;;4995515;28;20312;-77
2022/07/23 10:00:08;;;;;;;3.40;1.60;;;24.60;98.30;;;;;;4994780;28;20175;-77
2022/07/23 10:02:34;;;;;;;3.03;1.90;;;25.30;98.30;;;;;;5001817;28;20170;-77
2022/07/23 10:05:01;;;;;;;2.30;1.60;;;25.50;97.90;;;;;;5003347;28;20191;-77
2022/07/23 10:07:31;;;;;;;4.05;1.70;;;24.90;96.80;;;;;;5005191;28;20167;-78
2022/07/23 10:09:58;;;;;;;3.97;1.85;;;24.90;98.70;;;;;;5024857;28;20192;-77
2022/07/23 10:14:50;;;;;;;3.78;1.85;;;25.00;97.50;;;;;;5022225;28;20221;-78
2022/07/23 10:17:17;;;;;;;2.70;1.50;;;25.50;97.20;;;;;;5003888;28;20539;-78
2022/07/23 10:19:43;;;;;;;2.75;1.52;;;25.80;96.20;;;;;;5004979;28;20173;-77
2022/07/23 10:22:09;;;;;;;3.08;1.55;;;25.80;96.60;;;;;;5008088;28;20286;-78
2022/07/23 10:24:54;;;;;;;2.55;1.45;;;25.90;95.20;;;;;;5008621;28;20629;-79
2022/07/23 10:27:34;;;;;;;3.35;1.33;;;25.50;95.70;;;;;;5029301;28;20162;-80
2022/07/23 10:30:09;;;;;;;3.35;1.63;;;25.70;95.80;;;;;;5003082;28;20170;-78
2022/07/23 10:32:37;;;;;;;4.47;2.45;;;25.90;94.80;;;;;;5007847;28;20638;-78
2022/07/23 10:35:12;;;;;;;4.97;1.70;;;26.00;93.50;;;;;;5019720;28;20240;-78
2022/07/23 10:37:42;;;;;;;2.33;1.50;;;25.40;96.40;;;;;;5007482;28;20269;-79
2022/07/23 10:40:21;;;;;;;3.50;1.80;;;25.80;94.10;;;;;;5002925;28;20171;-78
2022/07/23 10:42:48;;;;;;;3.78;2.97;;;26.20;94.80;;;;;;5003677;28;20266;-79
2022/07/23 10:45:35;;;;;;;2.58;2.08;;;26.10;94.00;;;;;;5002132;28;20186;-79
2022/07/23 10:48:32;;;;;;;4.55;1.60;;;26.60;93.90;;;;;;5022508;28;20173;-79
2022/07/23 10:51:14;;;;;;;2.25;1.40;;;27.20;93.60;;;;;;5003783;28;20178;-80
2022/07/23 10:54:00;;;;;;;2.53;1.45;;;28.00;92.50;;;;;;5007969;28;20556;-78
2022/07/23 10:56:51;;;;;;;3.53;1.40;;;26.80;91.90;;;;;;4999276;28;20186;-78
2022/07/23 10:59:17;;;;;;;2.83;1.52;;;26.60;93.80;;;;;;5022391;28;20179;-78
2022/07/23 11:01:42;;;;;;;4.07;1.35;;;26.70;93.00;;;;;;5009604;28;20213;-78
2022/07/23 11:04:08;;;;;;;3.30;1.50;;;26.80;92.10;;;;;;5008616;28;20187;-78
2022/07/23 11:06:49;;;;;;;3.05;1.50;;;26.70;92.50;;;;;;5010498;28;20777;-78
2022/07/23 11:09:42;;;;;;;4.03;1.60;;;25.50;93.40;;;;;;5005316;28;20584;-78
2022/07/23 11:12:14;;;;;;;4.15;1.67;;;25.50;93.10;;;;;;5001802;28;20531;-78
2022/07/23 11:15:12;;;;;;;3.47;1.50;;;26.30;93.40;;;;;;5008692;28;20187;-77
2022/07/23 11:18:01;;;;;;;1.50;1.40;;;26.40;92.50;;;;;;5008728;28;20170;-78
2022/07/23 11:20:27;;;;;;;1.67;1.50;;;26.30;92.50;;;;;;5020310;28;20561;-78
2022/07/23 11:22:58;;;;;;;1.85;1.30;;;26.80;93.00;;;;;;5008000;28;20170;-77
2022/07/23 11:25:29;;;;;;;1.25;1.10;;;25.70;92.30;;;;;;5005885;28;20183;-78
2022/07/23 11:28:15;;;;;;;1.90;0.95;;;26.30;93.80;;;;;;5000725;28;20171;-79
2022/07/23 11:30:45;;;;;;;1.42;1.30;;;27.20;92.00;;;;;;5002027;28;20171;-79
2022/07/23 11:33:11;;;;;;;1.98;1.05;;;26.50;92.20;;;;;;5000333;28;20181;-78
2022/07/23 11:35:39;;;;;;;1.80;1.55;;;27.60;90.60;;;;;;5002354;28;20289;-78
2022/07/23 11:38:13;;;;;;;4.93;1.30;;;27.90;92.20;;;;;;5000839;28;20175;-78
2022/07/23 11:40:39;;;;;;;3.35;1.25;;;27.90;88.20;;;;;;4999057;28;20190;-77
2022/07/23 11:43:07;;;;;;;1.60;1.40;;;27.30;89.30;;;;;;4999024;28;20277;-78
2022/07/23 11:45:39;;;;;;;2.47;1.40;;;28.40;89.10;;;;;;4998320;28;20244;-77
2022/07/23 11:48:09;;;;;;;2.42;1.30;;;27.30;90.50;;;;;;4998841;28;20177;-78
2022/07/23 11:50:36;;;;;;;2.70;1.40;;;26.90;89.30;;;;;;4998666;28;20175;-79
2022/07/23 11:53:02;;;;;;;2.80;1.40;;;27.00;91.20;;;;;;4999087;28;20718;-79
2022/07/23 11:55:28;;;;;;;3.47;1.50;;;26.90;91.40;;;;;;4997446;28;20294;-77
2022/07/23 11:57:54;;;;;;;0.95;0.90;;;26.40;90.40;;;;;;4997837;28;20206;-78
2022/07/23 12:00:25;;;;;;;3.28;1.10;;;26.50;92.30;;;;;;4997650;28;20190;-78
2022/07/23 12:02:53;;;;;;;1.45;1.10;;;26.50;91.70;;;;;;4999514;28;20181;-78
2022/07/23 12:05:21;;;;;;;1.80;1.35;;;27.00;91.70;;;;;;4998777;28;20594;-77
2022/07/23 12:07:52;;;;;;;2.58;1.40;;;27.10;91.80;;;;;;4999326;28;20174;-79
2022/07/23 12:10:23;;;;;;;1.63;1.30;;;26.60;91.10;;;;;;4998863;28;20617;-78
2022/07/23 12:12:52;;;;;;;1.95;1.20;;;26.60;90.60;;;;;;4998011;28;20558;-78
2022/07/23 12:15:22;;;;;;;1.55;1.35;;;26.20;91.20;;;;;;4998266;28;20194;-79
2022/07/23 12:17:49;;;;;;;3.85;1.13;;;26.80;90.60;;;;;;4999755;28;20183;-79
2022/07/23 12:20:26;;;;;;;2.88;1.70;;;26.80;91.20;;;;;;5014659;28;20198;-79
2022/07/23 12:22:55;;;;;;;2.08;1.52;;;27.00;89.20;;;;;;4997090;28;20265;-80
2022/07/23 12:25:24;;;;;;;3.47;1.60;;;26.70;90.30;;;;;;4998739;28;20190;-80
2022/07/23 12:28:26;;;;;;;4.97;1.27;;;26.30;91.40;;;;;;5015081;28;20631;-79
2022/07/23 12:30:54;;;;;;;1.42;1.25;;;26.10;90.90;;;;;;4988989;28;20190;-79
2022/07/23 12:33:27;;;;;;;1.48;1.30;;;25.80;90.80;;;;;;4997759;28;20201;-78
2022/07/23 12:35:56;;;;;;;2.03;1.35;;;25.60;91.60;;;;;;4997230;28;20198;-78
2022/07/23 12:38:24;;;;;;;1.40;1.23;;;25.20;90.90;;;;;;4997679;28;20658;-78
2022/07/23 12:40:53;;;;;;;1.88;1.23;;;25.80;91.60;;;;;;4997899;28;20253;-78
2022/07/23 12:43:22;;;;;;;1.70;1.50;;;25.90;91.90;;;;;;4997945;28;20199;-79